BCS6717 EGNX-EDDF
Flight info
| Callsign | BCS6717 |
|---|---|
| Flight time | 1h 17m |
| Altitude | 35000 |
| Route | SAPCO UY53 DTY P166 BANTO P155 SIVDA P137 REDFA DCT TACHA DCT NOLRU DCT DIXAT DIXAT1A |
| Aircraft | A306/H-SDE1FGHIRWXYZ/HB1 |
Departure
| Time | 2026-04-14 03:29 |
|---|---|
| Airport | East Midlands Airport (EGNX) |
Arrival
| Time | 2026-04-14 04:47 |
|---|---|
| Airport | Frankfurt Main Airport (EDDF) |
| Time | Latitude | Longitude | Altitude | Speed | Heading |
|---|---|---|---|---|---|
| 2026-04-14 02:52 | 52.82748 | -1.34954 | 309 ft | 0 kts | 177° |
| 2026-04-14 03:18 | 52.82762 | -1.34954 | 308 ft | 4 kts | 177° |
| 2026-04-14 03:18 | 52.82789 | -1.34956 | 306 ft | 4 kts | 178° |
| 2026-04-14 03:18 | 52.82804 | -1.34957 | 307 ft | 4 kts | 165° |
| 2026-04-14 03:19 | 52.82822 | -1.34977 | 308 ft | 4 kts | 104° |
| 2026-04-14 03:19 | 52.82824 | -1.35014 | 308 ft | 1 kts | 88° |
| 2026-04-14 03:19 | 52.82824 | -1.35021 | 308 ft | 0 kts | 88° |
| 2026-04-14 03:22 | 52.82824 | -1.35012 | 308 ft | 3 kts | 88° |
| 2026-04-14 03:22 | 52.82825 | -1.34949 | 306 ft | 8 kts | 88° |
| 2026-04-14 03:22 | 52.82827 | -1.34830 | 306 ft | 13 kts | 88° |
| 2026-04-14 03:22 | 52.82830 | -1.34683 | 309 ft | 12 kts | 88° |
| 2026-04-14 03:23 | 52.82832 | -1.34545 | 310 ft | 12 kts | 88° |
| 2026-04-14 03:23 | 52.82842 | -1.34439 | 309 ft | 7 kts | 56° |
| 2026-04-14 03:23 | 52.82866 | -1.34417 | 312 ft | 2 kts | 15° |
| 2026-04-14 03:23 | 52.82898 | -1.34403 | 312 ft | 7 kts | 37° |
| 2026-04-14 03:24 | 52.82907 | -1.34277 | 310 ft | 18 kts | 91° |
| 2026-04-14 03:24 | 52.82909 | -1.34017 | 312 ft | 24 kts | 88° |
| 2026-04-14 03:24 | 52.82913 | -1.33764 | 310 ft | 21 kts | 88° |
| 2026-04-14 03:24 | 52.82919 | -1.33477 | 313 ft | 29 kts | 88° |
| 2026-04-14 03:25 | 52.82925 | -1.33148 | 311 ft | 29 kts | 88° |
| 2026-04-14 03:25 | 52.82931 | -1.32823 | 309 ft | 27 kts | 88° |
| 2026-04-14 03:25 | 52.82936 | -1.32511 | 307 ft | 27 kts | 88° |
| 2026-04-14 03:25 | 52.82942 | -1.32215 | 307 ft | 25 kts | 88° |
| 2026-04-14 03:26 | 52.82946 | -1.31933 | 309 ft | 24 kts | 88° |
| 2026-04-14 03:26 | 52.82952 | -1.31666 | 307 ft | 23 kts | 88° |
| 2026-04-14 03:26 | 52.82957 | -1.31412 | 310 ft | 21 kts | 88° |
| 2026-04-14 03:26 | 52.82960 | -1.31171 | 310 ft | 20 kts | 89° |
| 2026-04-14 03:27 | 52.82964 | -1.30942 | 310 ft | 19 kts | 88° |
| 2026-04-14 03:27 | 52.82973 | -1.30784 | 309 ft | 11 kts | 74° |
| 2026-04-14 03:27 | 52.83014 | -1.30696 | 308 ft | 9 kts | 31° |
| 2026-04-14 03:27 | 52.83083 | -1.30682 | 309 ft | 12 kts | 358° |
| 2026-04-14 03:28 | 52.83140 | -1.30762 | 309 ft | 11 kts | 275° |
| 2026-04-14 03:28 | 52.83135 | -1.30906 | 309 ft | 18 kts | 268° |
| 2026-04-14 03:28 | 52.83125 | -1.31350 | 312 ft | 72 kts | 268° |
| 2026-04-14 03:28 | 52.83103 | -1.32563 | 310 ft | 137 kts | 267° |
| 2026-04-14 03:29 | 52.83063 | -1.34395 | 628 ft | 167 kts | 265° |
| 2026-04-14 03:29 | 52.82977 | -1.36336 | 1458 ft | 173 kts | 264° |
| 2026-04-14 03:29 | 52.82811 | -1.38364 | 2087 ft | 190 kts | 248° |
| 2026-04-14 03:29 | 52.82004 | -1.40288 | 2451 ft | 221 kts | 224° |
| 2026-04-14 03:30 | 52.80819 | -1.42129 | 3045 ft | 242 kts | 220° |
| 2026-04-14 03:30 | 52.79544 | -1.44023 | 3956 ft | 249 kts | 221° |
| 2026-04-14 03:30 | 52.78253 | -1.45962 | 4988 ft | 252 kts | 221° |
| 2026-04-14 03:30 | 52.76951 | -1.47920 | 6022 ft | 255 kts | 219° |
| 2026-04-14 03:31 | 52.75379 | -1.49238 | 6982 ft | 260 kts | 190° |
| 2026-04-14 03:31 | 52.73578 | -1.48886 | 7954 ft | 268 kts | 162° |
| 2026-04-14 03:31 | 52.71843 | -1.47639 | 8820 ft | 276 kts | 158° |
| 2026-04-14 03:31 | 52.70074 | -1.46287 | 9734 ft | 283 kts | 158° |
| 2026-04-14 03:32 | 52.68242 | -1.44944 | 10418 ft | 297 kts | 159° |
| 2026-04-14 03:32 | 52.66269 | -1.43560 | 10764 ft | 319 kts | 160° |
| 2026-04-14 03:32 | 52.64146 | -1.42157 | 11089 ft | 339 kts | 161° |
| 2026-04-14 03:32 | 52.61891 | -1.40710 | 11409 ft | 357 kts | 161° |
| 2026-04-14 03:33 | 52.59529 | -1.39204 | 11844 ft | 369 kts | 162° |
| 2026-04-14 03:33 | 52.57109 | -1.37666 | 12441 ft | 376 kts | 162° |
| 2026-04-14 03:33 | 52.54651 | -1.36104 | 13072 ft | 382 kts | 162° |
| 2026-04-14 03:33 | 52.52161 | -1.34478 | 13711 ft | 388 kts | 161° |
| 2026-04-14 03:34 | 52.47127 | -1.31063 | 14938 ft | 395 kts | 161° |
| 2026-04-14 03:34 | 52.44572 | -1.29312 | 15543 ft | 399 kts | 161° |
| 2026-04-14 03:34 | 52.41996 | -1.27551 | 16187 ft | 403 kts | 161° |
| 2026-04-14 03:35 | 52.39391 | -1.25778 | 16790 ft | 407 kts | 161° |
| 2026-04-14 03:35 | 52.36761 | -1.23996 | 17396 ft | 411 kts | 161° |
| 2026-04-14 03:35 | 52.34139 | -1.22225 | 17988 ft | 415 kts | 161° |
| 2026-04-14 03:35 | 52.31459 | -1.20417 | 18535 ft | 419 kts | 161° |
| 2026-04-14 03:36 | 52.28799 | -1.18375 | 19020 ft | 427 kts | 154° |
| 2026-04-14 03:36 | 52.26336 | -1.15599 | 19440 ft | 436 kts | 142° |
| 2026-04-14 03:36 | 52.24253 | -1.11954 | 19880 ft | 444 kts | 128° |
| 2026-04-14 03:36 | 52.22750 | -1.07526 | 20345 ft | 450 kts | 112° |
| 2026-04-14 03:37 | 52.21976 | -1.02571 | 20794 ft | 454 kts | 96° |
| 2026-04-14 03:37 | 52.22004 | -0.97435 | 21258 ft | 455 kts | 80° |
| 2026-04-14 03:37 | 52.22779 | -0.92453 | 21714 ft | 454 kts | 69° |
| 2026-04-14 03:37 | 52.23868 | -0.87607 | 22165 ft | 457 kts | 66° |
| 2026-04-14 03:38 | 52.24917 | -0.82689 | 22603 ft | 461 kts | 68° |
| 2026-04-14 03:38 | 52.25945 | -0.77718 | 23018 ft | 464 kts | 68° |
| 2026-04-14 03:38 | 52.26945 | -0.72693 | 23420 ft | 468 kts | 69° |
| 2026-04-14 03:38 | 52.27914 | -0.67601 | 23790 ft | 471 kts | 70° |
| 2026-04-14 03:39 | 52.28860 | -0.62458 | 24137 ft | 475 kts | 70° |
| 2026-04-14 03:39 | 52.29792 | -0.57273 | 24472 ft | 477 kts | 70° |
| 2026-04-14 03:39 | 52.30718 | -0.52060 | 24831 ft | 479 kts | 70° |
| 2026-04-14 03:39 | 52.31644 | -0.46812 | 25176 ft | 481 kts | 70° |
| 2026-04-14 03:40 | 52.32569 | -0.41554 | 25506 ft | 483 kts | 70° |
| 2026-04-14 03:40 | 52.33500 | -0.36267 | 25817 ft | 485 kts | 70° |
| 2026-04-14 03:40 | 52.34432 | -0.30959 | 26137 ft | 487 kts | 70° |
| 2026-04-14 03:40 | 52.35253 | -0.25562 | 26438 ft | 492 kts | 75° |
| 2026-04-14 03:41 | 52.35642 | -0.19965 | 26736 ft | 498 kts | 83° |
| 2026-04-14 03:41 | 52.35755 | -0.14284 | 27024 ft | 501 kts | 85° |
| 2026-04-14 03:41 | 52.35770 | -0.08573 | 27293 ft | 504 kts | 87° |
| 2026-04-14 03:41 | 52.35730 | -0.02823 | 27565 ft | 506 kts | 87° |
| 2026-04-14 03:42 | 52.35552 | 0.02948 | 27881 ft | 509 kts | 93° |
| 2026-04-14 03:42 | 52.35121 | 0.08706 | 28180 ft | 511 kts | 95° |
| 2026-04-14 03:42 | 52.34638 | 0.14473 | 28411 ft | 513 kts | 95° |
| 2026-04-14 03:42 | 52.34125 | 0.20261 | 28618 ft | 516 kts | 96° |
| 2026-04-14 03:43 | 52.33596 | 0.26069 | 28899 ft | 517 kts | 96° |
| 2026-04-14 03:43 | 52.33063 | 0.31872 | 29252 ft | 516 kts | 95° |
| 2026-04-14 03:43 | 52.32531 | 0.37666 | 29599 ft | 515 kts | 95° |
| 2026-04-14 03:43 | 52.32001 | 0.43451 | 29935 ft | 515 kts | 95° |
| 2026-04-14 03:44 | 52.31471 | 0.49242 | 30245 ft | 515 kts | 95° |
| 2026-04-14 03:44 | 52.30942 | 0.55008 | 30629 ft | 512 kts | 96° |
| 2026-04-14 03:44 | 52.30420 | 0.60665 | 30989 ft | 510 kts | 96° |
| 2026-04-14 03:44 | 52.29890 | 0.66384 | 31272 ft | 509 kts | 96° |
| 2026-04-14 03:45 | 52.29357 | 0.72105 | 31534 ft | 509 kts | 96° |
| 2026-04-14 03:45 | 52.28821 | 0.77826 | 31840 ft | 509 kts | 96° |
| 2026-04-14 03:45 | 52.28284 | 0.83535 | 32132 ft | 509 kts | 96° |
| 2026-04-14 03:45 | 52.27745 | 0.89243 | 32428 ft | 508 kts | 96° |
| 2026-04-14 03:46 | 52.27203 | 0.94931 | 32771 ft | 506 kts | 96° |
| 2026-04-14 03:46 | 52.26660 | 1.00612 | 33093 ft | 506 kts | 96° |
| 2026-04-14 03:46 | 52.26117 | 1.06261 | 33498 ft | 503 kts | 96° |
| 2026-04-14 03:46 | 52.25571 | 1.11899 | 33809 ft | 502 kts | 96° |
| 2026-04-14 03:47 | 52.25024 | 1.17531 | 34078 ft | 503 kts | 96° |
| 2026-04-14 03:47 | 52.24474 | 1.23159 | 34324 ft | 502 kts | 96° |
| 2026-04-14 03:47 | 52.23922 | 1.28781 | 34578 ft | 502 kts | 96° |
| 2026-04-14 03:47 | 52.23367 | 1.34403 | 34832 ft | 501 kts | 96° |
| 2026-04-14 03:48 | 52.22810 | 1.40019 | 35039 ft | 502 kts | 97° |
| 2026-04-14 03:48 | 52.21706 | 1.51038 | 35086 ft | 478 kts | 97° |
| 2026-04-14 03:49 | 52.20640 | 1.61587 | 35082 ft | 469 kts | 97° |
| 2026-04-14 03:49 | 52.19577 | 1.72060 | 35086 ft | 468 kts | 97° |
| 2026-04-14 03:50 | 52.18504 | 1.82522 | 35086 ft | 468 kts | 97° |
| 2026-04-14 03:50 | 52.17419 | 1.92993 | 35086 ft | 468 kts | 97° |
| 2026-04-14 03:51 | 52.16327 | 2.03445 | 35089 ft | 468 kts | 98° |
| 2026-04-14 03:51 | 52.15227 | 2.13866 | 35088 ft | 466 kts | 98° |
| 2026-04-14 03:52 | 52.14119 | 2.24267 | 35093 ft | 466 kts | 98° |
| 2026-04-14 03:52 | 52.13003 | 2.34661 | 35092 ft | 466 kts | 98° |
| 2026-04-14 03:53 | 52.12057 | 2.45087 | 35089 ft | 464 kts | 90° |
| 2026-04-14 03:53 | 52.12782 | 2.55405 | 35094 ft | 458 kts | 73° |
| 2026-04-14 03:54 | 52.14528 | 2.65343 | 35096 ft | 456 kts | 70° |
| 2026-04-14 03:54 | 52.16441 | 2.75200 | 35094 ft | 456 kts | 70° |
| 2026-04-14 03:55 | 52.18345 | 2.85062 | 35090 ft | 457 kts | 70° |
| 2026-04-14 03:55 | 52.20214 | 2.94955 | 35092 ft | 457 kts | 70° |
| 2026-04-14 03:56 | 52.22061 | 3.04856 | 35095 ft | 456 kts | 71° |
| 2026-04-14 03:56 | 52.23891 | 3.14763 | 35094 ft | 456 kts | 72° |
| 2026-04-14 03:57 | 52.24585 | 3.24979 | 35089 ft | 460 kts | 94° |
| 2026-04-14 03:57 | 52.24053 | 3.30124 | 35091 ft | 461 kts | 106° |
| 2026-04-14 03:57 | 52.23076 | 3.35093 | 35091 ft | 460 kts | 109° |
| 2026-04-14 03:58 | 52.20792 | 3.44854 | 35096 ft | 461 kts | 112° |
| 2026-04-14 03:58 | 52.18396 | 3.54519 | 35094 ft | 458 kts | 112° |
| 2026-04-14 03:59 | 52.16030 | 3.64144 | 35092 ft | 458 kts | 112° |
| 2026-04-14 03:59 | 52.13684 | 3.73781 | 35096 ft | 458 kts | 112° |
| 2026-04-14 04:00 | 52.11344 | 3.83409 | 35103 ft | 458 kts | 112° |
| 2026-04-14 04:00 | 52.08994 | 3.93036 | 35103 ft | 458 kts | 112° |
| 2026-04-14 04:01 | 52.06641 | 4.02627 | 35100 ft | 456 kts | 112° |
| 2026-04-14 04:01 | 52.04288 | 4.12172 | 35095 ft | 455 kts | 113° |
| 2026-04-14 04:02 | 52.01929 | 4.21698 | 35100 ft | 455 kts | 113° |
| 2026-04-14 04:02 | 51.99560 | 4.31222 | 35103 ft | 455 kts | 113° |
| 2026-04-14 04:03 | 51.97185 | 4.40728 | 35102 ft | 455 kts | 113° |
| 2026-04-14 04:03 | 51.94804 | 4.50225 | 35096 ft | 454 kts | 113° |
| 2026-04-14 04:04 | 51.92419 | 4.59695 | 35104 ft | 454 kts | 113° |
| 2026-04-14 04:04 | 51.90044 | 4.69082 | 35101 ft | 454 kts | 113° |
| 2026-04-14 04:05 | 51.87645 | 4.78528 | 35098 ft | 454 kts | 113° |
| 2026-04-14 04:05 | 51.85238 | 4.87963 | 35106 ft | 453 kts | 113° |
| 2026-04-14 04:06 | 51.82831 | 4.97360 | 35104 ft | 451 kts | 114° |
| 2026-04-14 04:06 | 51.80424 | 5.06719 | 35105 ft | 451 kts | 114° |
| 2026-04-14 04:07 | 51.78416 | 5.14495 | 35107 ft | 451 kts | 114° |
| 2026-04-14 04:07 | 51.75995 | 5.23836 | 35105 ft | 451 kts | 114° |
| 2026-04-14 04:08 | 51.73566 | 5.33169 | 35099 ft | 451 kts | 114° |
| 2026-04-14 04:08 | 51.71132 | 5.42486 | 35098 ft | 450 kts | 114° |
| 2026-04-14 04:09 | 51.68694 | 5.51777 | 35098 ft | 450 kts | 114° |
| 2026-04-14 04:09 | 51.66250 | 5.61052 | 35097 ft | 449 kts | 114° |
| 2026-04-14 04:10 | 51.63803 | 5.70302 | 35103 ft | 449 kts | 114° |
| 2026-04-14 04:10 | 51.61350 | 5.79537 | 35104 ft | 449 kts | 114° |
| 2026-04-14 04:11 | 51.58890 | 5.88764 | 35102 ft | 449 kts | 114° |
| 2026-04-14 04:11 | 51.56424 | 5.97972 | 35101 ft | 449 kts | 114° |
| 2026-04-14 04:12 | 51.53966 | 6.07116 | 35102 ft | 449 kts | 115° |
| 2026-04-14 04:12 | 51.51486 | 6.16304 | 35107 ft | 449 kts | 115° |
| 2026-04-14 04:13 | 51.49080 | 6.25542 | 35100 ft | 449 kts | 113° |
| 2026-04-14 04:13 | 51.46804 | 6.34864 | 35101 ft | 449 kts | 113° |
| 2026-04-14 04:14 | 51.44509 | 6.44216 | 35100 ft | 456 kts | 113° |
| 2026-04-14 04:14 | 51.42147 | 6.53788 | 35097 ft | 468 kts | 113° |
| 2026-04-14 04:15 | 51.39723 | 6.63563 | 35093 ft | 474 kts | 113° |
| 2026-04-14 04:15 | 51.37281 | 6.73369 | 35092 ft | 474 kts | 114° |
| 2026-04-14 04:15 | 51.36063 | 6.78248 | 34744 ft | 470 kts | 114° |
| 2026-04-14 04:16 | 51.34849 | 6.83095 | 34082 ft | 468 kts | 114° |
| 2026-04-14 04:16 | 51.33641 | 6.87909 | 33414 ft | 464 kts | 114° |
| 2026-04-14 04:16 | 51.32447 | 6.92663 | 32843 ft | 458 kts | 115° |
| 2026-04-14 04:16 | 51.31267 | 6.97348 | 32274 ft | 452 kts | 115° |
| 2026-04-14 04:17 | 51.30099 | 7.01973 | 31720 ft | 446 kts | 116° |
| 2026-04-14 04:17 | 51.28941 | 7.06544 | 31163 ft | 440 kts | 117° |
| 2026-04-14 04:17 | 51.27600 | 7.10865 | 30626 ft | 429 kts | 127° |
| 2026-04-14 04:17 | 51.25831 | 7.14507 | 30110 ft | 414 kts | 140° |
| 2026-04-14 04:18 | 51.23621 | 7.17409 | 29516 ft | 399 kts | 152° |
| 2026-04-14 04:18 | 51.21265 | 7.19504 | 29091 ft | 388 kts | 157° |
| 2026-04-14 04:18 | 51.18875 | 7.21401 | 28628 ft | 381 kts | 158° |
| 2026-04-14 04:18 | 51.16515 | 7.23246 | 28151 ft | 375 kts | 158° |
| 2026-04-14 04:19 | 51.14190 | 7.25067 | 27686 ft | 370 kts | 158° |
| 2026-04-14 04:19 | 51.11897 | 7.26878 | 27214 ft | 367 kts | 158° |
| 2026-04-14 04:19 | 51.09634 | 7.28721 | 26759 ft | 364 kts | 157° |
| 2026-04-14 04:19 | 51.07399 | 7.30559 | 26309 ft | 361 kts | 157° |
| 2026-04-14 04:20 | 51.05177 | 7.32387 | 25857 ft | 358 kts | 157° |
| 2026-04-14 04:20 | 51.02971 | 7.34205 | 25378 ft | 357 kts | 157° |
| 2026-04-14 04:20 | 51.00771 | 7.36017 | 24884 ft | 355 kts | 157° |
| 2026-04-14 04:20 | 50.98583 | 7.37817 | 24438 ft | 354 kts | 157° |
| 2026-04-14 04:21 | 50.96402 | 7.39610 | 23974 ft | 352 kts | 156° |
| 2026-04-14 04:21 | 50.94233 | 7.41392 | 23475 ft | 351 kts | 157° |
| 2026-04-14 04:21 | 50.92073 | 7.43164 | 22978 ft | 348 kts | 157° |
| 2026-04-14 04:21 | 50.89933 | 7.44919 | 22526 ft | 344 kts | 157° |
| 2026-04-14 04:22 | 50.87814 | 7.46655 | 22059 ft | 341 kts | 157° |
| 2026-04-14 04:22 | 50.85715 | 7.48371 | 21602 ft | 338 kts | 157° |
| 2026-04-14 04:22 | 50.83634 | 7.50072 | 21151 ft | 336 kts | 157° |
| 2026-04-14 04:22 | 50.81564 | 7.51761 | 20697 ft | 334 kts | 157° |
| 2026-04-14 04:23 | 50.79504 | 7.53440 | 20236 ft | 331 kts | 157° |
| 2026-04-14 04:23 | 50.77464 | 7.55103 | 19796 ft | 329 kts | 157° |
| 2026-04-14 04:23 | 50.75430 | 7.56758 | 19350 ft | 328 kts | 157° |
| 2026-04-14 04:23 | 50.73410 | 7.58399 | 18908 ft | 326 kts | 157° |
| 2026-04-14 04:24 | 50.71393 | 7.60036 | 18449 ft | 326 kts | 157° |
| 2026-04-14 04:24 | 50.69381 | 7.61667 | 17940 ft | 324 kts | 157° |
| 2026-04-14 04:24 | 50.67385 | 7.63285 | 17560 ft | 322 kts | 157° |
| 2026-04-14 04:24 | 50.65390 | 7.64900 | 17179 ft | 322 kts | 157° |
| 2026-04-14 04:25 | 50.63399 | 7.66510 | 16783 ft | 321 kts | 157° |
| 2026-04-14 04:25 | 50.61420 | 7.68110 | 16399 ft | 319 kts | 157° |
| 2026-04-14 04:25 | 50.59444 | 7.69704 | 16019 ft | 319 kts | 157° |
| 2026-04-14 04:25 | 50.57477 | 7.71291 | 15648 ft | 317 kts | 157° |
| 2026-04-14 04:26 | 50.55519 | 7.72869 | 15279 ft | 315 kts | 156° |
| 2026-04-14 04:26 | 50.53572 | 7.74436 | 14909 ft | 314 kts | 156° |
| 2026-04-14 04:26 | 50.51636 | 7.75993 | 14543 ft | 312 kts | 156° |
| 2026-04-14 04:26 | 50.49706 | 7.77542 | 14174 ft | 310 kts | 156° |
| 2026-04-14 04:27 | 50.47788 | 7.79082 | 13803 ft | 309 kts | 156° |
| 2026-04-14 04:27 | 50.45878 | 7.80612 | 13402 ft | 308 kts | 156° |
| 2026-04-14 04:27 | 50.43984 | 7.82169 | 13060 ft | 308 kts | 153° |
| 2026-04-14 04:27 | 50.42222 | 7.84098 | 12968 ft | 310 kts | 146° |
| 2026-04-14 04:28 | 50.40520 | 7.86190 | 12903 ft | 311 kts | 145° |
| 2026-04-14 04:28 | 50.38830 | 7.88297 | 12787 ft | 310 kts | 145° |
| 2026-04-14 04:28 | 50.37141 | 7.90400 | 12702 ft | 310 kts | 144° |
| 2026-04-14 04:28 | 50.35472 | 7.92475 | 12610 ft | 310 kts | 144° |
| 2026-04-14 04:29 | 50.33783 | 7.94572 | 12523 ft | 310 kts | 144° |
| 2026-04-14 04:29 | 50.32091 | 7.96664 | 12409 ft | 310 kts | 144° |
| 2026-04-14 04:29 | 50.30401 | 7.98754 | 12321 ft | 310 kts | 144° |
| 2026-04-14 04:29 | 50.28712 | 8.00840 | 12230 ft | 309 kts | 145° |
| 2026-04-14 04:30 | 50.27024 | 8.02923 | 12127 ft | 309 kts | 145° |
| 2026-04-14 04:30 | 50.25338 | 8.05003 | 11953 ft | 309 kts | 145° |
| 2026-04-14 04:30 | 50.23651 | 8.07084 | 11539 ft | 308 kts | 144° |
| 2026-04-14 04:30 | 50.21977 | 8.09146 | 11185 ft | 306 kts | 144° |
| 2026-04-14 04:31 | 50.20304 | 8.11205 | 10853 ft | 306 kts | 144° |
| 2026-04-14 04:31 | 50.18630 | 8.13263 | 10510 ft | 306 kts | 144° |
| 2026-04-14 04:31 | 50.15341 | 8.17306 | 9976 ft | 293 kts | 144° |
| 2026-04-14 04:32 | 50.13736 | 8.19274 | 9509 ft | 293 kts | 144° |
| 2026-04-14 04:32 | 50.12146 | 8.21220 | 9163 ft | 289 kts | 144° |
| 2026-04-14 04:32 | 50.10570 | 8.23148 | 8870 ft | 288 kts | 143° |
| 2026-04-14 04:32 | 50.08998 | 8.25070 | 8550 ft | 287 kts | 143° |
| 2026-04-14 04:33 | 50.07462 | 8.27056 | 8138 ft | 287 kts | 136° |
| 2026-04-14 04:33 | 50.06158 | 8.29391 | 7809 ft | 285 kts | 129° |
| 2026-04-14 04:33 | 50.04942 | 8.31820 | 7513 ft | 284 kts | 128° |
| 2026-04-14 04:33 | 50.03739 | 8.34252 | 7190 ft | 283 kts | 128° |
| 2026-04-14 04:34 | 50.02539 | 8.36672 | 6888 ft | 282 kts | 128° |
| 2026-04-14 04:34 | 50.01338 | 8.39085 | 6570 ft | 281 kts | 128° |
| 2026-04-14 04:34 | 50.00141 | 8.41482 | 6245 ft | 280 kts | 128° |
| 2026-04-14 04:34 | 49.98951 | 8.43862 | 5940 ft | 278 kts | 128° |
| 2026-04-14 04:35 | 49.97767 | 8.46229 | 5636 ft | 277 kts | 128° |
| 2026-04-14 04:35 | 49.96588 | 8.48581 | 5342 ft | 275 kts | 128° |
| 2026-04-14 04:35 | 49.95428 | 8.50927 | 5042 ft | 273 kts | 125° |
| 2026-04-14 04:35 | 49.94607 | 8.53553 | 4723 ft | 271 kts | 102° |
| 2026-04-14 04:36 | 49.94594 | 8.56425 | 4430 ft | 266 kts | 76° |
| 2026-04-14 04:36 | 49.95148 | 8.59143 | 4141 ft | 263 kts | 68° |
| 2026-04-14 04:36 | 49.95796 | 8.61784 | 3993 ft | 261 kts | 67° |
| 2026-04-14 04:36 | 49.96446 | 8.64418 | 3988 ft | 261 kts | 67° |
| 2026-04-14 04:37 | 49.97088 | 8.67054 | 3983 ft | 261 kts | 68° |
| 2026-04-14 04:37 | 49.97724 | 8.69692 | 3985 ft | 261 kts | 68° |
| 2026-04-14 04:37 | 49.98357 | 8.72334 | 3982 ft | 261 kts | 68° |
| 2026-04-14 04:37 | 49.98989 | 8.74979 | 3980 ft | 261 kts | 68° |
| 2026-04-14 04:38 | 49.99618 | 8.77627 | 3981 ft | 261 kts | 68° |
| 2026-04-14 04:38 | 50.00244 | 8.80270 | 3977 ft | 261 kts | 68° |
| 2026-04-14 04:38 | 50.00871 | 8.82918 | 3973 ft | 261 kts | 68° |
| 2026-04-14 04:38 | 50.01497 | 8.85563 | 3971 ft | 261 kts | 68° |
| 2026-04-14 04:39 | 50.02123 | 8.88214 | 3974 ft | 261 kts | 68° |
| 2026-04-14 04:39 | 50.02748 | 8.90863 | 3969 ft | 261 kts | 68° |
| 2026-04-14 04:39 | 50.03454 | 8.93455 | 3965 ft | 260 kts | 58° |
| 2026-04-14 04:39 | 50.04666 | 8.95436 | 3954 ft | 247 kts | 29° |
| 2026-04-14 04:40 | 50.06215 | 8.96187 | 3968 ft | 223 kts | 2° |
| 2026-04-14 04:40 | 50.07663 | 8.95906 | 3961 ft | 200 kts | 346° |
| 2026-04-14 04:40 | 50.08948 | 8.95352 | 3949 ft | 185 kts | 343° |
| 2026-04-14 04:41 | 50.11317 | 8.94000 | 3952 ft | 182 kts | 322° |
| 2026-04-14 04:41 | 50.11896 | 8.92286 | 3954 ft | 187 kts | 275° |
| 2026-04-14 04:41 | 50.11638 | 8.90310 | 3978 ft | 191 kts | 254° |
| 2026-04-14 04:41 | 50.11152 | 8.88370 | 3972 ft | 193 kts | 250° |
| 2026-04-14 04:42 | 50.10628 | 8.86438 | 3973 ft | 194 kts | 252° |
| 2026-04-14 04:42 | 50.10156 | 8.84494 | 3956 ft | 188 kts | 253° |
| 2026-04-14 04:42 | 50.09713 | 8.82622 | 3751 ft | 182 kts | 253° |
| 2026-04-14 04:42 | 50.09278 | 8.80795 | 3497 ft | 179 kts | 254° |
| 2026-04-14 04:43 | 50.08848 | 8.78989 | 3220 ft | 176 kts | 254° |
| 2026-04-14 04:43 | 50.08427 | 8.77216 | 2964 ft | 173 kts | 254° |
| 2026-04-14 04:43 | 50.08012 | 8.75476 | 2732 ft | 170 kts | 254° |
| 2026-04-14 04:43 | 50.07605 | 8.73765 | 2503 ft | 167 kts | 254° |
| 2026-04-14 04:44 | 50.07209 | 8.72105 | 2264 ft | 160 kts | 254° |
| 2026-04-14 04:44 | 50.06838 | 8.70547 | 2077 ft | 149 kts | 255° |
| 2026-04-14 04:44 | 50.06483 | 8.69052 | 1867 ft | 146 kts | 255° |
| 2026-04-14 04:44 | 50.06132 | 8.67576 | 1659 ft | 145 kts | 255° |
| 2026-04-14 04:45 | 50.05781 | 8.66103 | 1461 ft | 145 kts | 253° |
| 2026-04-14 04:45 | 50.05439 | 8.64627 | 1247 ft | 145 kts | 253° |
| 2026-04-14 04:45 | 50.05095 | 8.63167 | 1058 ft | 143 kts | 251° |
| 2026-04-14 04:45 | 50.04742 | 8.61734 | 828 ft | 140 kts | 251° |
| 2026-04-14 04:46 | 50.04404 | 8.60318 | 652 ft | 139 kts | 251° |
| 2026-04-14 04:46 | 50.04067 | 8.58918 | 450 ft | 138 kts | 251° |
| 2026-04-14 04:46 | 50.03738 | 8.57536 | 367 ft | 128 kts | 249° |
| 2026-04-14 04:46 | 50.03495 | 8.56515 | 363 ft | 76 kts | 249° |
| 2026-04-14 04:47 | 50.03369 | 8.55992 | 357 ft | 30 kts | 250° |
| 2026-04-14 04:47 | 50.03313 | 8.55679 | 355 ft | 31 kts | 263° |
| 2026-04-14 04:47 | 50.03330 | 8.55356 | 358 ft | 29 kts | 279° |
| 2026-04-14 04:47 | 50.03359 | 8.55085 | 355 ft | 23 kts | 279° |
| 2026-04-14 04:48 | 50.03344 | 8.54846 | 353 ft | 23 kts | 248° |
| 2026-04-14 04:48 | 50.03286 | 8.54616 | 353 ft | 23 kts | 249° |
| 2026-04-14 04:48 | 50.03232 | 8.54386 | 353 ft | 23 kts | 250° |
| 2026-04-14 04:48 | 50.03179 | 8.54166 | 352 ft | 21 kts | 249° |
| 2026-04-14 04:49 | 50.03128 | 8.53950 | 349 ft | 22 kts | 249° |
| 2026-04-14 04:49 | 50.03078 | 8.53739 | 338 ft | 12 kts | 249° |
| 2026-04-14 04:49 | 50.03063 | 8.53655 | 338 ft | 7 kts | 271° |
| 2026-04-14 04:49 | 50.03093 | 8.53601 | 338 ft | 7 kts | 335° |
| 2026-04-14 04:50 | 50.03133 | 8.53577 | 352 ft | 5 kts | 339° |
| 2026-04-14 04:50 | 50.03171 | 8.53555 | 353 ft | 7 kts | 339° |
| 2026-04-14 04:50 | 50.03240 | 8.53513 | 346 ft | 13 kts | 339° |
| 2026-04-14 04:50 | 50.03315 | 8.53429 | 350 ft | 14 kts | 302° |
| 2026-04-14 04:51 | 50.03368 | 8.53309 | 345 ft | 14 kts | 305° |
| 2026-04-14 04:51 | 50.03388 | 8.53181 | 352 ft | 12 kts | 254° |
| 2026-04-14 04:51 | 50.03356 | 8.53056 | 350 ft | 13 kts | 248° |
| 2026-04-14 04:51 | 50.03324 | 8.52929 | 347 ft | 12 kts | 249° |
| 2026-04-14 04:52 | 50.03329 | 8.52837 | 337 ft | 8 kts | 306° |
| 2026-04-14 04:52 | 50.03377 | 8.52808 | 351 ft | 10 kts | 358° |
| 2026-04-14 04:52 | 50.03429 | 8.52821 | 348 ft | 6 kts | 20° |
| 2026-04-14 04:52 | 50.03463 | 8.52858 | 351 ft | 8 kts | 46° |
| 2026-04-14 04:53 | 50.03497 | 8.52968 | 351 ft | 13 kts | 69° |
| 2026-04-14 04:53 | 50.03534 | 8.53055 | 355 ft | 8 kts | 24° |
| 2026-04-14 04:53 | 50.03576 | 8.53042 | 353 ft | 5 kts | 327° |
| 2026-04-14 04:53 | 50.03584 | 8.52981 | 348 ft | 7 kts | 253° |
| 2026-04-14 04:54 | 50.03579 | 8.52944 | 352 ft | 1 kts | 273° |
| 2026-04-14 04:54 | 50.03583 | 8.52937 | 352 ft | 2 kts | 308° |
| 2026-04-14 04:54 | 50.03597 | 8.52944 | 357 ft | 2 kts | 40° |
| 2026-04-14 04:54 | 50.03603 | 8.53014 | 348 ft | 12 kts | 83° |
| 2026-04-14 04:55 | 50.03632 | 8.53167 | 354 ft | 15 kts | 68° |
| 2026-04-14 04:55 | 50.03666 | 8.53309 | 355 ft | 11 kts | 69° |
| 2026-04-14 04:55 | 50.03686 | 8.53388 | 358 ft | 5 kts | 63° |
| 2026-04-14 04:55 | 50.03713 | 8.53407 | 357 ft | 5 kts | 2° |
| 2026-04-14 04:56 | 50.03755 | 8.53381 | 355 ft | 7 kts | 338° |
| 2026-04-14 04:56 | 50.03780 | 8.53366 | 358 ft | 2 kts | 339° |
| 2026-04-14 04:56 | 50.03783 | 8.53364 | 358 ft | 0 kts | 339° |